aviador You're here:

KDFW Decoded Metar

DALLAS-FORT WORTH in TX, USA
Report Time2018-05-23 15:53:00
UTC Time2018-05-23 16:41:13
Flight Rules vfr VFR
WindVRB at 04 kt
Visibility9999 m
Phenomena:N/A
Clouds:Scattered 029 Hf
Scattered 300 Hf
Expected CloudBase > 2,800 ft AGL from Temp-Dew spread
CeilingNone
Temp28°C (ISA +14)
Dew Point21°C (66% RH)
Heat Index30.2°C
QNH1018 hPa
Density Alt2,359 ft
Elevation571 ft
Report Wrong Elevation
Raw Report
KDFW 231553Z VRB04KT 10SM SCT029 SCT300 28/21 A3006 RMK AO2 SLP172
T02780206=

Extra information for KDFW:More info

Metar Taf Metar & Taf Last 4 Metars F.Rules Stats Wind Profile Meteogram Temp Stats Airport Information Weather charts Add Link Nearby VenuesMetar ALERT Operation Metar Decoded Social comments

AIRNAV info for KDFW